Hydesville, California
Current Conditions -  °F | °C
As of 6:30 AM on Friday 24 Oct 2014 (Local Time) from KFOT Reporting Station
Overcast Overcast  
Wind Chill: 55°   Ceiling: 300
Heat Index: 55°   Visibility: 10mi
Dew Point: 55°   Wind: 13mph
Humidity: 100%   Direction: 110°ESE
Pressure: 29.89"   Gusts: NA
Location:  40.55°N, 124.09°W
Report Text: KFOT 241330Z AUTO 11011KT 10SM BKN003 BKN034 OVC044 13/13 A2989 RMK AO1
Loading
Personal Weather Stations






























Interactive Weather Map
Tropical Storm Tracking
New forecast layout! Learn more

10-Day Weather Forecast

Advertisements
Track Severe Weather on mobile